Airfield :
LOGIN :

Register | Disclaimer

   EN    FR    IT 

 










Legend :    VFR   Marginal VFR   IFR   Intensive IFR   Very Intensive IFR
Visi :
Ceiling :
>= 8 km
>= 3000ft
5 to 8 km
1000 to 3000 ft
1500m to 5 km
500 to 1000 ft
800 to 1500m
200 to 500 ft
< 800m
< 200 ft
Symbols :   Thunderstorms  Fog  Heavy snow  Heavy precipitations  Wind > 20 kt
SIGMETs :     Misc.  Thunderstorms  Icing  Turbulence  Mountain Waves  Volcanic Ashes






- Airport Elevation : 319 ft


EIME - Casement Air Base

CURRENT METAR :
  • 280600Z 15008KT 120V210 9999 -RA FEW012 SCT017 OVC033 05/03 Q1000 RERA

EXPIRED METARs :
  • 280500Z 10005KT 9999 -RA FEW015 SCT017 BKN021 04/03 Q1002
  • 280400Z 15007KT 090V200 9999 -RA FEW015 BKN030 05/03 Q1003

TAF TAF EIME
Valid from the 28 at 06:00 until the 28 at 15:00 UTC


280500Z 2806/2815 16012KT 9999 -RA FEW013 BKN020
BECMG 2806/2808 16027G40KT
TEMPO 2806/2810 5000 BKN013
BECMG 2809/2811 21020G32KT
TEMPO 2810/2814 4000 BKN008



MET'MAP, your aeronautical weather chart ! - Copyright ORBIFLY December 2007 - Disclaimer

ORBIFLY MET'MAP TEAM :

Programming & Development : Alexandra Zaïnal
Concept & original design : Baudouin d'Aumeries
Assistance for programming : Marc-Olivier Méhu
Technical & hardware support : Manuel Goepfert

Contact : metmap@orbifly.com




SOURCES & CREDITS :

   NOAA